Time;durP1;ratioP1;P1;durP2;ratioP2;P2;SDS_P1;SDS_P2;PMS_P1;PMS_P2;Temp;Humidity;BMP_temperature;BMP_pressure;BME280_temperature;BME280_humidity;BME280_pressure;Samples;Min_cycle;Max_cycle;Signal;HPM_P1;HPM_P2
2022/03/03 00:01:33;;;;;;;28.60;18.75;;;;;;;3.26;100.00;101005.34;5055453;28;20437;-73
2022/03/03 00:04:19;;;;;;;29.92;19.67;;;;;;;3.09;100.00;101004.19;5055525;28;20033;-74
2022/03/03 00:07:05;;;;;;;27.70;18.80;;;;;;;3.37;100.00;101006.41;5055430;28;20040;-74
2022/03/03 00:09:51;;;;;;;28.27;19.08;;;;;;;3.55;100.00;101003.22;5054703;28;20024;-73
2022/03/03 00:12:37;;;;;;;30.67;20.63;;;;;;;3.74;100.00;101006.09;5056088;28;20063;-75
2022/03/03 00:15:23;;;;;;;32.40;20.98;;;;;;;3.91;100.00;101002.00;5055078;28;20472;-73
2022/03/03 00:18:09;;;;;;;31.33;21.65;;;;;;;3.40;100.00;100990.91;5054319;28;20453;-75
2022/03/03 00:20:55;;;;;;;32.55;22.45;;;;;;;3.75;100.00;100989.72;5054751;28;20094;-73
2022/03/03 00:23:41;;;;;;;35.20;23.42;;;;;;;3.93;100.00;100987.38;5055063;28;20081;-75
2022/03/03 00:26:26;;;;;;;40.15;23.73;;;;;;;4.04;100.00;100985.81;5054866;28;20079;-74
2022/03/03 00:29:12;;;;;;;38.55;24.58;;;;;;;4.06;100.00;100983.22;5054075;28;20032;-74
2022/03/03 00:31:58;;;;;;;34.95;22.17;;;;;;;3.89;100.00;100970.03;5055356;28;20127;-73
2022/03/03 00:34:44;;;;;;;33.10;21.77;;;;;;;3.98;100.00;100980.53;5054954;28;20376;-72
2022/03/03 00:37:30;;;;;;;34.05;22.48;;;;;;;4.45;100.00;100981.09;5056395;28;20021;-75
2022/03/03 00:40:16;;;;;;;34.22;22.20;;;;;;;4.10;100.00;100978.09;5056460;28;20021;-74
2022/03/03 00:43:04;;;;;;;32.58;20.05;;;;;;;4.07;100.00;100972.84;5055934;28;20086;-74
2022/03/03 00:45:49;;;;;;;28.67;17.98;;;;;;;3.93;100.00;100958.88;5054339;28;20021;-74
2022/03/03 00:48:35;;;;;;;29.75;18.98;;;;;;;4.06;100.00;100958.16;5055944;28;20025;-74
2022/03/03 00:51:22;;;;;;;25.30;16.60;;;;;;;3.94;100.00;100957.16;5055569;28;20103;-72
2022/03/03 00:54:07;;;;;;;26.00;16.20;;;;;;;3.89;100.00;100958.78;5053706;28;20091;-74
2022/03/03 00:56:53;;;;;;;24.88;16.55;;;;;;;3.81;100.00;100957.81;5053842;28;20021;-73
2022/03/03 00:59:39;;;;;;;23.88;15.77;;;;;;;4.20;100.00;100956.63;5054747;28;20032;-72
2022/03/03 01:02:25;;;;;;;22.95;16.40;;;;;;;3.77;100.00;100950.84;5053911;28;20100;-74
2022/03/03 01:05:11;;;;;;;26.10;17.42;;;;;;;4.23;100.00;100956.63;5054780;28;20124;-73
2022/03/03 01:07:57;;;;;;;24.25;15.93;;;;;;;4.21;100.00;100947.97;5056036;28;20334;-74
2022/03/03 01:10:43;;;;;;;25.17;15.77;;;;;;;4.15;100.00;100944.44;5055170;28;20445;-73
2022/03/03 01:13:28;;;;;;;21.90;14.88;;;;;;;4.02;100.00;100948.59;5054456;28;20094;-73
2022/03/03 01:16:14;;;;;;;23.17;15.48;;;;;;;4.18;100.00;100950.53;5055038;28;20161;-73
2022/03/03 01:19:00;;;;;;;25.55;16.55;;;;;;;4.31;100.00;100947.22;5056111;28;20116;-74
2022/03/03 01:21:46;;;;;;;26.13;17.42;;;;;;;4.15;100.00;100947.03;5053639;28;20044;-72
2022/03/03 01:24:32;;;;;;;24.67;17.13;;;;;;;3.98;100.00;100940.78;5055309;28;20433;-72
2022/03/03 01:27:19;;;;;;;25.95;16.17;;;;;;;3.74;100.00;100938.72;5054550;28;20044;-73
2022/03/03 01:30:08;;;;;;;24.55;16.58;;;;;;;3.79;100.00;100937.09;5061435;28;20456;-74
2022/03/03 01:32:53;;;;;;;24.88;16.88;;;;;;;4.01;100.00;100944.28;5074537;28;20025;-74
2022/03/03 01:35:40;;;;;;;24.33;16.63;;;;;;;3.70;100.00;100933.50;5077072;28;20048;-73
2022/03/03 01:38:26;;;;;;;26.23;17.30;;;;;;;3.76;100.00;100931.88;5076229;28;20059;-73
2022/03/03 01:41:12;;;;;;;26.10;16.60;;;;;;;3.84;100.00;100922.47;5077373;28;20023;-72
2022/03/03 01:43:57;;;;;;;26.23;17.23;;;;;;;3.97;100.00;100926.06;5077058;28;20024;-74
2022/03/03 01:46:55;;;;;;;29.20;18.27;;;;;;;3.99;100.00;100920.03;5077842;28;20084;-74
2022/03/03 01:49:41;;;;;;;24.73;16.60;;;;;;;3.77;100.00;100914.56;5076945;28;20068;-72
2022/03/03 01:52:27;;;;;;;28.48;17.60;;;;;;;3.98;100.00;100915.72;5077621;28;20025;-72
2022/03/03 01:55:13;;;;;;;27.77;18.50;;;;;;;4.05;100.00;100914.06;5076763;28;20100;-72
2022/03/03 01:58:02;;;;;;;24.63;16.85;;;;;;;3.80;100.00;100906.84;5071037;28;20095;-75
2022/03/03 02:00:50;;;;;;;33.05;19.10;;;;;;;3.80;100.00;100910.31;5060324;28;20036;-73
2022/03/03 02:03:36;;;;;;;25.17;16.95;;;;;;;4.23;100.00;100909.94;5059384;28;20029;-73
2022/03/03 02:06:21;;;;;;;28.33;18.83;;;;;;;3.79;100.00;100910.31;5059188;28;20468;-74
2022/03/03 02:09:07;;;;;;;29.95;18.95;;;;;;;3.50;100.00;100912.50;5061181;28;20029;-73
2022/03/03 02:11:53;;;;;;;31.55;19.45;;;;;;;3.59;100.00;100914.34;5067760;28;20469;-74
2022/03/03 02:14:44;;;;;;;30.52;20.23;;;;;;;3.30;100.00;100913.94;5061346;28;20029;-73
2022/03/03 02:17:30;;;;;;;29.33;19.55;;;;;;;3.50;100.00;100909.91;5071179;28;20068;-74
2022/03/03 02:20:27;;;;;;;31.23;18.92;;;;;;;3.65;100.00;100912.72;5076016;28;20032;-72
2022/03/03 02:23:14;;;;;;;30.73;19.88;;;;;;;3.69;100.00;100901.53;5074684;28;20021;-72
2022/03/03 02:26:00;;;;;;;31.08;19.02;;;;;;;3.79;100.00;100905.13;5074652;28;20036;-73
2022/03/03 02:28:48;;;;;;;30.58;20.23;;;;;;;3.92;100.00;100900.13;5074149;28;20025;-74
2022/03/03 02:31:34;;;;;;;32.60;21.13;;;;;;;3.88;100.00;100897.44;5066740;28;20089;-73
2022/03/03 02:34:20;;;;;;;31.33;20.35;;;;;;;4.03;100.00;100898.50;5074505;28;20012;-74
2022/03/03 02:37:06;;;;;;;32.53;20.13;;;;;;;3.94;100.00;100895.78;5075762;28;20116;-73
2022/03/03 02:39:51;;;;;;;30.80;20.70;;;;;;;3.91;100.00;100889.72;5067467;28;20021;-75
2022/03/03 02:42:38;;;;;;;30.10;19.98;;;;;;;4.07;100.00;100894.22;5059789;28;20036;-73
2022/03/03 02:45:24;;;;;;;31.95;19.70;;;;;;;3.90;100.00;100888.00;5058512;28;20028;-73
2022/03/03 02:48:10;;;;;;;32.40;20.42;;;;;;;4.20;100.00;100891.78;5058038;28;20029;-74
2022/03/03 02:50:56;;;;;;;33.78;20.95;;;;;;;3.80;100.00;100891.31;5057518;28;20435;-73
2022/03/03 02:53:42;;;;;;;33.55;20.73;;;;;;;3.67;100.00;100885.13;5056703;28;20428;-73
2022/03/03 02:56:27;;;;;;;33.65;20.95;;;;;;;3.95;100.00;100881.97;5057061;28;20370;-73
2022/03/03 02:59:13;;;;;;;34.30;22.02;;;;;;;3.79;100.00;100884.38;5058602;28;20033;-73
2022/03/03 03:01:59;;;;;;;30.30;20.38;;;;;;;3.64;100.00;100887.66;5058579;28;20500;-73
2022/03/03 03:04:45;;;;;;;31.38;20.20;;;;;;;3.73;100.00;100880.00;5057312;28;20115;-73
2022/03/03 03:07:30;;;;;;;34.28;21.55;;;;;;;4.16;100.00;100873.59;5057640;28;20079;-74
2022/03/03 03:10:16;;;;;;;30.60;19.98;;;;;;;3.51;100.00;100872.81;5056621;28;20025;-73
2022/03/03 03:13:03;;;;;;;37.17;22.80;;;;;;;3.44;100.00;100867.50;5057263;28;20055;-72
2022/03/03 03:15:49;;;;;;;36.95;22.58;;;;;;;3.51;100.00;100866.75;5056340;28;20346;-74
2022/03/03 03:18:35;;;;;;;37.67;23.45;;;;;;;3.49;100.00;100865.84;5057995;28;20421;-73
2022/03/03 03:21:21;;;;;;;34.30;22.27;;;;;;;3.85;100.00;100869.78;5056339;28;20041;-73
2022/03/03 03:24:06;;;;;;;36.00;23.15;;;;;;;3.95;100.00;100874.19;5056901;28;20037;-73
2022/03/03 03:26:52;;;;;;;36.58;22.90;;;;;;;3.57;100.00;100867.69;5056319;28;20048;-73
2022/03/03 03:29:38;;;;;;;36.95;23.88;;;;;;;3.67;100.00;100866.97;5055450;28;20059;-74
2022/03/03 03:32:24;;;;;;;38.00;23.83;;;;;;;3.73;100.00;100871.34;5054411;28;20056;-73
2022/03/03 03:35:10;;;;;;;36.58;23.75;;;;;;;3.68;100.00;100863.53;5055269;28;20441;-73
2022/03/03 03:37:56;;;;;;;38.22;24.15;;;;;;;3.91;100.00;100862.06;5057386;28;20108;-73
2022/03/03 03:40:42;;;;;;;35.30;23.60;;;;;;;4.10;100.00;100860.56;5057096;28;20036;-74
2022/03/03 03:43:28;;;;;;;34.25;23.08;;;;;;;3.70;100.00;100853.19;5055811;28;20112;-73
2022/03/03 03:46:14;;;;;;;34.97;22.73;;;;;;;3.29;100.00;100851.75;5054623;28;20039;-73
2022/03/03 03:49:00;;;;;;;39.10;24.48;;;;;;;3.54;100.00;100848.69;5055890;28;20029;-73
2022/03/03 03:51:45;;;;;;;35.45;23.48;;;;;;;3.98;100.00;100850.06;5054172;28;20041;-74
2022/03/03 03:54:31;;;;;;;36.63;23.23;;;;;;;4.07;100.00;100847.56;5056854;28;20021;-72
2022/03/03 03:57:17;;;;;;;36.70;22.15;;;;;;;3.97;100.00;100850.91;5056637;28;20025;-73
2022/03/03 04:00:08;;;;;;;33.08;21.45;;;;;;;4.11;100.00;100855.38;5055875;28;20028;-73
2022/03/03 04:02:54;;;;;;;33.08;21.80;;;;;;;3.98;100.00;100850.91;5055396;28;20013;-73
2022/03/03 04:05:40;;;;;;;32.33;22.10;;;;;;;4.24;100.00;100846.00;5056585;28;20365;-73
2022/03/03 04:08:26;;;;;;;30.70;20.80;;;;;;;3.77;100.00;100845.50;5055010;28;20025;-72
2022/03/03 04:11:11;;;;;;;32.50;20.70;;;;;;;3.79;100.00;100846.41;5055364;28;20045;-73
2022/03/03 04:13:58;;;;;;;29.88;21.00;;;;;;;3.94;100.00;100843.13;5054891;28;20032;-73
2022/03/03 04:16:43;;;;;;;30.40;20.40;;;;;;;4.23;100.00;100837.34;5055489;28;20060;-73
2022/03/03 04:19:29;;;;;;;29.88;20.10;;;;;;;4.05;100.00;100837.19;5055251;28;20087;-72
2022/03/03 04:22:15;;;;;;;28.38;19.42;;;;;;;4.15;100.00;100844.19;5055921;28;20433;-74
2022/03/03 04:25:02;;;;;;;30.77;19.90;;;;;;;4.41;100.00;100844.44;5055099;28;20396;-73
2022/03/03 04:27:48;;;;;;;29.65;19.13;;;;;;;3.94;100.00;100841.38;5055984;28;20108;-73
2022/03/03 04:30:34;;;;;;;27.55;18.85;;;;;;;4.01;100.00;100847.50;5055578;28;20070;-72
2022/03/03 04:33:20;;;;;;;30.80;19.45;;;;;;;3.85;100.00;100848.16;5053563;28;20028;-73
2022/03/03 04:36:06;;;;;;;27.30;18.33;;;;;;;3.54;100.00;100840.91;5054070;28;20145;-73
2022/03/03 04:38:51;;;;;;;31.50;19.15;;;;;;;3.40;100.00;100835.53;5055050;28;20365;-72
2022/03/03 04:41:37;;;;;;;29.88;18.20;;;;;;;3.32;100.00;100839.75;5054564;28;20238;-73
2022/03/03 04:44:23;;;;;;;26.80;18.02;;;;;;;3.16;100.00;100835.22;5054259;28;20029;-72
2022/03/03 04:47:09;;;;;;;30.73;18.73;;;;;;;3.42;100.00;100839.00;5053671;28;20021;-73
2022/03/03 04:49:55;;;;;;;27.88;18.10;;;;;;;3.30;100.00;100827.63;5055861;28;20445;-73
2022/03/03 04:52:41;;;;;;;27.38;18.33;;;;;;;3.23;100.00;100828.41;5054361;28;20414;-73
2022/03/03 04:55:27;;;;;;;28.67;18.17;;;;;;;3.34;100.00;100832.00;5054803;28;20115;-73
2022/03/03 04:58:13;;;;;;;29.25;17.65;;;;;;;3.33;100.00;100835.41;5054003;28;20028;-73
2022/03/03 05:00:58;;;;;;;29.55;18.00;;;;;;;3.40;100.00;100832.94;5054501;28;20033;-73
2022/03/03 05:03:44;;;;;;;29.02;17.73;;;;;;;3.37;100.00;100827.72;5053755;28;20025;-74
2022/03/03 05:06:30;;;;;;;29.98;18.17;;;;;;;3.27;100.00;100828.47;5055439;28;20102;-74
2022/03/03 05:09:16;;;;;;;26.50;17.35;;;;;;;3.16;100.00;100832.63;5054253;28;20418;-73
2022/03/03 05:12:02;;;;;;;27.02;16.90;;;;;;;3.36;100.00;100835.47;5054552;28;20063;-72
2022/03/03 05:14:49;;;;;;;27.17;16.92;;;;;;;3.16;100.00;100839.50;5054240;28;20056;-73
2022/03/03 05:17:35;;;;;;;28.52;17.15;;;;;;;3.19;100.00;100835.25;5054546;28;20029;-74
2022/03/03 05:20:21;;;;;;;24.48;16.30;;;;;;;3.12;100.00;100835.13;5054131;28;20032;-72
2022/03/03 05:23:06;;;;;;;30.85;17.90;;;;;;;3.10;100.00;100832.53;5053590;28;20061;-72
2022/03/03 05:25:52;;;;;;;28.80;17.35;;;;;;;3.25;100.00;100835.34;5054080;28;20071;-73
2022/03/03 05:28:38;;;;;;;26.30;16.77;;;;;;;3.07;100.00;100834.22;5053932;28;20468;-73
2022/03/03 05:31:24;;;;;;;27.67;17.23;;;;;;;3.16;100.00;100837.81;5053974;28;20033;-74
2022/03/03 05:34:10;;;;;;;25.73;16.75;;;;;;;3.14;100.00;100826.53;5054330;28;20079;-74
2022/03/03 05:36:55;;;;;;;28.00;17.45;;;;;;;3.19;100.00;100829.19;5054416;28;20052;-73
2022/03/03 05:39:44;;;;;;;24.30;16.00;;;;;;;3.21;100.00;100833.56;5053781;28;20108;-74
2022/03/03 05:42:31;;;;;;;28.30;16.70;;;;;;;3.20;100.00;100837.00;5054814;28;20358;-73
2022/03/03 05:45:16;;;;;;;26.33;17.17;;;;;;;3.18;100.00;100838.66;5053894;28;20063;-72
2022/03/03 05:48:03;;;;;;;26.23;17.48;;;;;;;3.22;100.00;100843.03;5053730;28;20048;-73
2022/03/03 05:50:49;;;;;;;29.65;17.90;;;;;;;3.22;100.00;100835.28;5055133;28;20354;-73
2022/03/03 05:53:36;;;;;;;28.73;18.35;;;;;;;3.17;100.00;100842.13;5053542;28;20369;-73
2022/03/03 05:56:22;;;;;;;28.52;17.90;;;;;;;3.09;100.00;100843.72;5053563;28;20051;-73
2022/03/03 05:59:13;;;;;;;29.08;18.15;;;;;;;2.88;100.00;100843.41;5055069;28;20127;-72
2022/03/03 06:01:59;;;;;;;27.92;18.35;;;;;;;3.11;100.00;100843.75;5054709;28;20025;-73
2022/03/03 06:04:48;;;;;;;29.45;18.98;;;;;;;2.97;100.00;100842.69;5053470;28;20032;-74
2022/03/03 06:07:40;;;;;;;27.80;18.02;;;;;;;3.09;100.00;100848.91;5054107;28;20056;-74
2022/03/03 06:10:29;;;;;;;29.05;17.70;;;;;;;3.10;100.00;100845.47;5053272;28;20033;-73
2022/03/03 06:13:28;;;;;;;29.27;18.67;;;;;;;3.15;100.00;100849.00;5053779;28;20041;-73
2022/03/03 06:16:18;;;;;;;27.60;18.27;;;;;;;3.14;100.00;100851.56;5055838;28;20041;-74
2022/03/03 06:19:04;;;;;;;29.88;17.88;;;;;;;3.12;100.00;100859.31;5058626;28;20029;-73
2022/03/03 06:21:50;;;;;;;33.95;19.67;;;;;;;3.25;100.00;100861.22;5056954;28;20066;-72
2022/03/03 06:24:37;;;;;;;31.35;19.08;;;;;;;3.20;100.00;100862.00;5057493;28;20385;-74
2022/03/03 06:27:23;;;;;;;32.10;19.75;;;;;;;3.14;100.00;100865.38;5058173;28;20028;-74
2022/03/03 06:30:09;;;;;;;36.08;20.88;;;;;;;3.13;100.00;100866.22;5056294;28;20029;-74
2022/03/03 06:32:55;;;;;;;32.83;20.80;;;;;;;3.20;100.00;100857.69;5055995;28;20025;-72
2022/03/03 06:35:40;;;;;;;30.65;19.95;;;;;;;3.30;100.00;100858.72;5057317;28;20024;-73
2022/03/03 06:38:26;;;;;;;32.85;20.77;;;;;;;3.49;100.00;100852.91;5057082;28;20377;-73
2022/03/03 06:41:12;;;;;;;35.40;20.27;;;;;;;3.31;100.00;100856.13;5056871;28;20495;-73
2022/03/03 06:43:58;;;;;;;31.05;20.58;;;;;;;3.28;100.00;100855.22;5057691;28;20029;-74
2022/03/03 06:46:44;;;;;;;37.55;23.67;;;;;;;3.41;100.00;100855.41;5057482;28;20036;-72
2022/03/03 06:49:29;;;;;;;41.15;23.38;;;;;;;3.52;100.00;100851.25;5056402;28;20029;-72
2022/03/03 06:52:16;;;;;;;39.22;24.70;;;;;;;3.97;100.00;100856.97;5056049;28;20025;-72
2022/03/03 06:55:03;;;;;;;33.63;20.30;;;;;;;3.62;100.00;100860.84;5057106;28;20036;-73
2022/03/03 06:57:50;;;;;;;31.52;19.83;;;;;;;3.93;100.00;100868.16;5056188;28;20029;-72
2022/03/03 07:00:36;;;;;;;29.90;19.83;;;;;;;3.78;100.00;100873.13;5056920;28;20043;-72
2022/03/03 07:03:24;;;;;;;30.17;19.85;;;;;;;3.83;100.00;100880.97;5057299;28;20064;-73
2022/03/03 07:06:13;;;;;;;33.83;21.35;;;;;;;4.37;100.00;100886.75;5056277;28;20025;-74
2022/03/03 07:08:59;;;;;;;41.40;27.40;;;;;;;4.09;100.00;100892.50;5056722;28;20109;-70
2022/03/03 07:11:47;;;;;;;31.85;19.88;;;;;;;4.19;100.00;100897.81;5056100;28;20057;-72
2022/03/03 07:14:32;;;;;;;35.55;21.20;;;;;;;4.05;100.00;100893.31;5056218;28;20069;-72
2022/03/03 07:17:37;;;;;;;33.22;21.15;;;;;;;4.45;100.00;100900.69;5055950;28;20029;-72
2022/03/03 07:20:35;;;;;;;38.17;20.67;;;;;;;4.43;100.00;100899.81;5056112;28;20021;-72
2022/03/03 07:23:26;;;;;;;33.20;21.02;;;;;;;4.41;100.00;100894.59;5056100;28;20032;-72
2022/03/03 07:26:13;;;;;;;32.08;20.30;;;;;;;4.81;100.00;100891.53;5055721;28;20110;-72
2022/03/03 07:29:04;;;;;;;33.65;21.00;;;;;;;5.26;100.00;100878.88;5055518;28;20106;-72
2022/03/03 07:31:57;;;;;;;31.92;20.00;;;;;;;4.66;100.00;100873.22;5057218;28;20021;-72
2022/03/03 07:34:49;;;;;;;30.15;20.02;;;;;;;4.80;100.00;100878.53;5055607;28;20033;-73
2022/03/03 07:37:55;;;;;;;33.30;19.15;;;;;;;4.46;100.00;100879.94;5056929;28;20029;-73
2022/03/03 07:40:43;;;;;;;30.67;20.02;;;;;;;4.78;100.00;100875.91;5055754;28;20111;-73
2022/03/03 07:43:28;;;;;;;32.47;20.48;;;;;;;5.22;100.00;100877.09;5056424;28;20025;-73
2022/03/03 07:46:14;;;;;;;33.90;22.25;;;;;;;5.22;100.00;100879.72;5055127;28;20056;-72
2022/03/03 07:49:01;;;;;;;31.73;19.45;;;;;;;5.38;100.00;100878.06;5055730;28;20072;-76
2022/03/03 07:51:48;;;;;;;29.52;19.65;;;;;;;5.48;100.00;100875.53;5056355;28;20415;-72
2022/03/03 07:54:34;;;;;;;30.48;19.67;;;;;;;5.40;100.00;100866.81;5055449;28;20037;-72
2022/03/03 07:57:22;;;;;;;29.80;19.67;;;;;;;5.51;100.00;100876.41;5056392;28;20106;-72
2022/03/03 08:00:13;;;;;;;28.77;19.23;;;;;;;5.94;100.00;100874.03;5055194;28;20110;-72
2022/03/03 08:03:00;;;;;;;30.33;19.23;;;;;;;5.90;100.00;100869.69;5055536;28;20024;-72
2022/03/03 08:05:58;;;;;;;29.13;19.27;;;;;;;6.43;100.00;100869.84;5055632;28;20044;-73
2022/03/03 08:08:44;;;;;;;31.25;20.52;;;;;;;6.06;100.00;100865.44;5055153;28;20170;-71
2022/03/03 08:11:31;;;;;;;31.35;19.58;;;;;;;6.31;100.00;100867.22;5054840;28;20060;-72
2022/03/03 08:14:17;;;;;;;32.72;19.95;;;;;;;6.71;100.00;100856.84;5054967;28;20115;-72
2022/03/03 08:17:03;;;;;;;29.23;18.88;;;;;;;6.68;100.00;100864.66;5055889;28;20021;-72
2022/03/03 08:19:52;;;;;;;31.88;18.83;;;;;;;7.27;100.00;100859.41;5056259;28;20356;-72
2022/03/03 08:22:39;;;;;;;28.90;18.38;;;;;;;7.31;100.00;100864.59;5053734;28;20463;-72
2022/03/03 08:25:25;;;;;;;27.92;18.40;;;;;;;7.58;100.00;100871.47;5054294;28;20025;-71
2022/03/03 08:28:11;;;;;;;29.27;18.45;;;;;;;7.50;100.00;100871.50;5054452;28;20420;-72
2022/03/03 08:31:05;;;;;;;29.50;18.55;;;;;;;7.76;100.00;100871.44;5055119;28;20179;-72
2022/03/03 08:33:56;;;;;;;26.00;17.75;;;;;;;7.27;100.00;100869.84;5055483;28;20025;-72
2022/03/03 08:36:56;;;;;;;29.58;18.40;;;;;;;7.31;100.00;100869.81;5054370;28;20029;-71
2022/03/03 08:39:44;;;;;;;34.20;18.90;;;;;;;8.08;100.00;100866.94;5055308;28;20469;-72
2022/03/03 08:42:37;;;;;;;31.17;20.13;;;;;;;7.26;100.00;100863.75;5054451;28;20033;-72
2022/03/03 08:45:28;;;;;;;30.02;19.20;;;;;;;7.83;100.00;100865.31;5054721;28;20108;-72
2022/03/03 08:48:15;;;;;;;26.02;18.52;;;;;;;7.98;100.00;100873.06;5054616;28;20125;-73
2022/03/03 08:51:02;;;;;;;25.08;18.38;;;;;;;8.65;100.00;100862.25;5054944;28;20413;-72
2022/03/03 08:53:48;;;;;;;28.50;19.52;;;;;;;8.20;100.00;100878.16;5055199;28;20052;-72
2022/03/03 08:56:34;;;;;;;32.75;20.88;;;;;;;8.44;100.00;100856.34;5055393;28;20060;-72
2022/03/03 08:59:20;;;;;;;29.88;20.13;;;;;;;7.81;100.00;100869.66;5055222;28;20021;-72
2022/03/03 09:02:06;;;;;;;26.88;19.35;;;;;;;8.19;100.00;100870.34;5054493;28;20108;-71
2022/03/03 09:04:52;;;;;;;28.67;19.23;;;;;;;8.36;100.00;100868.56;5053920;28;20032;-72
2022/03/03 09:07:39;;;;;;;28.63;19.38;;;;;;;8.35;100.00;100857.25;5053914;28;20051;-72
2022/03/03 09:10:25;;;;;;;26.58;18.17;;;;;;;8.49;100.00;100854.53;5055119;28;20441;-72
2022/03/03 09:13:11;;;;;;;26.55;17.92;;;;;;;9.13;100.00;100854.00;5053892;28;20473;-71
2022/03/03 09:15:58;;;;;;;29.48;19.80;;;;;;;9.11;100.00;100862.72;5053862;28;20120;-72
2022/03/03 09:18:48;;;;;;;25.25;18.30;;;;;;;9.14;100.00;100858.38;5054031;28;20028;-72
2022/03/03 09:21:33;;;;;;;31.15;18.95;;;;;;;9.56;100.00;100864.88;5053618;28;20444;-71
2022/03/03 09:24:19;;;;;;;26.42;18.52;;;;;;;9.19;100.00;100873.97;5054908;28;20037;-72
2022/03/03 09:27:05;;;;;;;31.30;19.23;;;;;;;9.03;100.00;100875.88;5052895;28;20021;-72
2022/03/03 09:29:51;;;;;;;26.95;18.95;;;;;;;8.86;100.00;100875.16;5055548;28;20033;-76
2022/03/03 09:32:38;;;;;;;25.63;18.02;;;;;;;9.08;100.00;100875.81;5054088;28;20100;-72
2022/03/03 09:35:25;;;;;;;26.75;18.83;;;;;;;9.21;100.00;100878.31;5054816;28;20032;-75
2022/03/03 09:38:12;;;;;;;30.45;18.67;;;;;;;9.30;100.00;100874.75;5053630;28;20365;-77
2022/03/03 09:40:58;;;;;;;27.83;18.90;;;;;;;9.02;100.00;100878.50;5053660;28;20068;-73
2022/03/03 09:43:44;;;;;;;31.35;20.77;;;;;;;8.94;100.00;100872.47;5054828;28;20108;-72
2022/03/03 09:46:29;;;;;;;32.13;21.92;;;;;;;8.94;100.00;100875.09;5053419;28;20029;-71
2022/03/03 09:49:17;;;;;;;28.30;19.25;;;;;;;8.88;100.00;100875.16;5055038;28;20029;-71
2022/03/03 09:52:14;;;;;;;28.83;20.38;;;;;;;9.19;100.00;100871.38;5057215;28;20035;-72
2022/03/03 09:55:01;;;;;;;29.75;20.55;;;;;;;9.55;100.00;100864.03;5057385;28;20465;-73
2022/03/03 09:57:48;;;;;;;29.40;21.65;;;;;;;9.10;100.00;100866.22;5057221;28;20032;-72
2022/03/03 10:00:37;;;;;;;29.75;18.85;;;;;;;8.82;100.00;100862.13;5057890;28;20040;-73
2022/03/03 10:03:23;;;;;;;26.67;18.30;;;;;;;9.30;100.00;100859.94;5057448;28;20025;-72
2022/03/03 10:06:11;;;;;;;26.67;18.75;;;;;;;9.45;100.00;100861.53;5057438;28;20029;-72
2022/03/03 10:09:00;;;;;;;25.42;18.58;;;;;;;9.37;100.00;100863.38;5056758;28;20035;-73
2022/03/03 10:11:48;;;;;;;29.05;19.80;;;;;;;9.22;100.00;100858.28;5057164;28;20057;-73
2022/03/03 10:14:37;;;;;;;28.85;19.90;;;;;;;9.05;100.00;100854.97;5057901;28;20041;-74
2022/03/03 10:17:34;;;;;;;30.05;19.23;;;;;;;9.20;100.00;100858.28;5059029;28;20407;-73
2022/03/03 10:20:20;;;;;;;25.95;19.45;;;;;;;9.32;100.00;100850.31;5057427;28;20029;-72
2022/03/03 10:23:08;;;;;;;26.83;18.90;;;;;;;9.78;100.00;100854.13;5058237;28;20455;-73
2022/03/03 10:25:55;;;;;;;29.65;19.50;;;;;;;10.09;100.00;100849.44;5058467;28;20448;-73
2022/03/03 10:28:47;;;;;;;28.77;19.05;;;;;;;9.84;100.00;100850.59;5043465;28;20115;-73
2022/03/03 10:31:44;;;;;;;24.05;18.02;;;;;;;10.42;100.00;100837.63;5057926;28;20094;-72
2022/03/03 10:34:34;;;;;;;27.88;18.38;;;;;;;10.79;96.64;100836.13;5057671;28;20098;-73
2022/03/03 10:37:23;;;;;;;28.60;19.27;;;;;;;10.42;99.28;100837.63;5057931;28;20025;-72
2022/03/03 10:40:11;;;;;;;33.25;22.13;;;;;;;10.82;98.08;100831.72;5057515;28;20040;-72
2022/03/03 10:42:57;;;;;;;30.23;19.67;;;;;;;10.06;99.01;100832.00;5056530;28;20402;-72
2022/03/03 10:46:02;;;;;;;28.80;19.05;;;;;;;11.25;94.76;100831.84;5056983;28;20099;-73
2022/03/03 10:48:48;;;;;;;33.95;20.30;;;;;;;11.10;92.58;100834.75;5056857;28;20028;-72
2022/03/03 10:51:35;;;;;;;28.42;18.80;;;;;;;10.35;95.48;100833.34;5056336;28;20044;-73
2022/03/03 10:54:21;;;;;;;26.20;19.40;;;;;;;10.82;93.71;100823.88;5056114;28;20411;-72
2022/03/03 10:57:07;;;;;;;26.67;19.02;;;;;;;11.35;91.51;100828.16;5055712;28;20043;-72
2022/03/03 10:59:52;;;;;;;24.67;18.30;;;;;;;10.95;89.58;100825.38;5056341;28;20476;-72
2022/03/03 11:02:44;;;;;;;23.90;17.60;;;;;;;10.91;89.50;100828.06;5055333;28;20036;-72
2022/03/03 11:05:31;;;;;;;24.48;17.02;;;;;;;10.18;91.34;100828.38;5055927;28;20021;-73
2022/03/03 11:08:17;;;;;;;24.38;16.73;;;;;;;10.81;89.86;100824.75;5057420;28;20025;-73
2022/03/03 11:11:03;;;;;;;21.05;15.60;;;;;;;10.56;86.12;100828.66;5057543;28;20433;-72
2022/03/03 11:13:50;;;;;;;21.88;16.15;;;;;;;9.69;87.40;100824.63;5056925;28;20488;-73
2022/03/03 11:16:36;;;;;;;22.02;16.10;;;;;;;10.69;86.10;100830.19;5057231;28;20033;-72
2022/03/03 11:19:22;;;;;;;26.77;17.77;;;;;;;10.96;82.97;100827.09;5056252;28;20440;-73
2022/03/03 11:22:08;;;;;;;21.58;16.10;;;;;;;10.76;81.49;100823.97;5056865;28;20090;-73
2022/03/03 11:24:57;;;;;;;19.48;15.05;;;;;;;11.09;75.19;100826.00;5056043;28;20025;-73
2022/03/03 11:27:44;;;;;;;19.58;14.48;;;;;;;10.66;74.40;100819.78;5057733;28;20369;-73
2022/03/03 11:30:32;;;;;;;21.98;14.35;;;;;;;10.08;79.69;100816.28;5055797;28;20024;-72
2022/03/03 11:33:35;;;;;;;23.38;14.85;;;;;;;9.95;83.09;100819.91;5056008;28;20049;-72
2022/03/03 11:36:21;;;;;;;20.52;14.90;;;;;;;10.02;81.20;100821.59;5055708;28;20029;-72
2022/03/03 11:39:07;;;;;;;21.52;14.55;;;;;;;10.54;80.85;100817.34;5056634;28;20106;-72
2022/03/03 11:41:53;;;;;;;21.27;15.80;;;;;;;11.48;76.95;100822.63;5055872;28;20037;-73
2022/03/03 11:44:39;;;;;;;27.05;15.80;;;;;;;11.38;74.17;100823.72;5054874;28;20028;-72
2022/03/03 11:47:31;;;;;;;24.95;15.63;;;;;;;10.78;78.94;100806.47;5055593;28;20036;-72
2022/03/03 11:50:23;;;;;;;22.30;14.70;;;;;;;11.88;72.75;100806.97;5055543;28;20411;-73
2022/03/03 11:53:09;;;;;;;21.85;14.32;;;;;;;11.08;77.47;100813.78;5055187;28;20052;-74
2022/03/03 11:55:54;;;;;;;21.08;13.55;;;;;;;10.44;74.01;100805.25;5055325;28;20346;-72
2022/03/03 11:58:41;;;;;;;18.45;13.55;;;;;;;10.84;72.50;100808.13;5054904;28;20083;-73
2022/03/03 12:01:27;;;;;;;20.08;13.40;;;;;;;10.60;68.39;100811.16;5055024;28;20043;-73
2022/03/03 12:04:16;;;;;;;20.20;12.90;;;;;;;11.06;69.08;100810.34;5054732;28;20024;-73
2022/03/03 12:07:02;;;;;;;15.98;11.77;;;;;;;11.24;63.12;100817.84;5056601;28;20349;-74
2022/03/03 12:09:49;;;;;;;18.50;12.73;;;;;;;10.92;67.13;100811.44;5055888;28;20036;-73
2022/03/03 12:12:34;;;;;;;17.98;12.18;;;;;;;11.31;66.88;100814.22;5054289;28;20052;-73
2022/03/03 12:15:20;;;;;;;19.67;12.80;;;;;;;11.01;68.72;100801.66;5055875;28;20035;-73
2022/03/03 12:18:08;;;;;;;17.83;12.90;;;;;;;11.03;68.13;100812.13;5056229;28;20025;-72
2022/03/03 12:21:24;;;;;;;15.57;11.63;;;;;;;11.02;67.22;100813.91;5054930;28;20021;-73
2022/03/03 12:24:13;;;;;;;14.95;10.93;;;;;;;11.66;62.51;100805.69;5054448;28;20025;-74
2022/03/03 12:27:07;;;;;;;15.15;10.30;;;;;;;12.14;57.18;100802.88;5054392;28;20166;-72
2022/03/03 12:29:57;;;;;;;14.70;10.68;;;;;;;11.69;58.54;100803.03;5054128;28;20029;-72
2022/03/03 12:32:45;;;;;;;14.52;10.68;;;;;;;12.38;57.36;100789.19;5055811;28;20408;-72
2022/03/03 12:35:31;;;;;;;16.67;10.85;;;;;;;11.81;59.88;100794.91;5055681;28;20037;-72
2022/03/03 12:38:17;;;;;;;17.17;11.90;;;;;;;11.64;61.64;100800.47;5054307;28;20037;-73
2022/03/03 12:41:04;;;;;;;17.00;11.82;;;;;;;11.39;62.74;100796.59;5055193;28;20435;-73